sensor_id;sensor_type;location;lat;lon;timestamp;P1;durP1;ratioP1;P2;durP2;ratioP2
14326;SDS011;7247;53.330;-1.180;2023-08-17T00:02:23;31.50;;;23.33;;
14326;SDS011;7247;53.330;-1.180;2023-08-17T00:04:49;32.07;;;23.00;;
14326;SDS011;7247;53.330;-1.180;2023-08-17T00:07:16;28.27;;;22.93;;
14326;SDS011;7247;53.330;-1.180;2023-08-17T00:09:42;30.90;;;24.40;;
14326;SDS011;7247;53.330;-1.180;2023-08-17T00:12:08;29.17;;;22.60;;
14326;SDS011;7247;53.330;-1.180;2023-08-17T00:14:36;28.67;;;22.67;;
14326;SDS011;7247;53.330;-1.180;2023-08-17T00:17:03;29.97;;;21.97;;
14326;SDS011;7247;53.330;-1.180;2023-08-17T00:19:29;33.53;;;24.10;;
14326;SDS011;7247;53.330;-1.180;2023-08-17T00:21:56;29.93;;;22.47;;
14326;SDS011;7247;53.330;-1.180;2023-08-17T00:24:22;32.80;;;22.50;;
14326;SDS011;7247;53.330;-1.180;2023-08-17T00:26:48;33.70;;;24.83;;
14326;SDS011;7247;53.330;-1.180;2023-08-17T00:29:15;32.83;;;23.80;;
14326;SDS011;7247;53.330;-1.180;2023-08-17T00:31:43;30.57;;;24.60;;
14326;SDS011;7247;53.330;-1.180;2023-08-17T00:34:10;35.93;;;25.60;;
14326;SDS011;7247;53.330;-1.180;2023-08-17T00:36:37;42.03;;;26.43;;
14326;SDS011;7247;53.330;-1.180;2023-08-17T00:39:03;39.27;;;27.87;;
14326;SDS011;7247;53.330;-1.180;2023-08-17T00:41:30;40.17;;;28.97;;
14326;SDS011;7247;53.330;-1.180;2023-08-17T00:43:56;37.03;;;28.10;;
14326;SDS011;7247;53.330;-1.180;2023-08-17T00:46:22;44.13;;;29.80;;
14326;SDS011;7247;53.330;-1.180;2023-08-17T00:48:51;42.33;;;30.00;;
14326;SDS011;7247;53.330;-1.180;2023-08-17T00:51:18;47.97;;;30.73;;
14326;SDS011;7247;53.330;-1.180;2023-08-17T00:53:45;52.50;;;32.60;;
14326;SDS011;7247;53.330;-1.180;2023-08-17T00:56:12;53.80;;;34.73;;
14326;SDS011;7247;53.330;-1.180;2023-08-17T00:58:38;52.73;;;33.90;;
14326;SDS011;7247;53.330;-1.180;2023-08-17T01:01:05;54.03;;;34.67;;
14326;SDS011;7247;53.330;-1.180;2023-08-17T01:03:31;53.47;;;34.13;;
14326;SDS011;7247;53.330;-1.180;2023-08-17T01:05:59;57.53;;;35.97;;
14326;SDS011;7247;53.330;-1.180;2023-08-17T01:08:27;63.60;;;36.37;;
14326;SDS011;7247;53.330;-1.180;2023-08-17T01:10:57;63.43;;;37.97;;
14326;SDS011;7247;53.330;-1.180;2023-08-17T01:13:25;61.40;;;36.97;;
14326;SDS011;7247;53.330;-1.180;2023-08-17T01:15:56;66.57;;;37.90;;
14326;SDS011;7247;53.330;-1.180;2023-08-17T01:18:23;62.73;;;37.63;;
14326;SDS011;7247;53.330;-1.180;2023-08-17T01:20:50;67.73;;;39.33;;
14326;SDS011;7247;53.330;-1.180;2023-08-17T01:23:20;64.00;;;38.03;;
14326;SDS011;7247;53.330;-1.180;2023-08-17T01:25:47;61.97;;;37.20;;
14326;SDS011;7247;53.330;-1.180;2023-08-17T01:28:14;61.17;;;38.83;;
14326;SDS011;7247;53.330;-1.180;2023-08-17T01:30:42;60.93;;;37.97;;
14326;SDS011;7247;53.330;-1.180;2023-08-17T01:33:11;63.33;;;37.50;;
14326;SDS011;7247;53.330;-1.180;2023-08-17T01:35:42;58.07;;;36.87;;
14326;SDS011;7247;53.330;-1.180;2023-08-17T01:38:11;59.63;;;36.60;;
14326;SDS011;7247;53.330;-1.180;2023-08-17T01:40:39;61.67;;;37.23;;
14326;SDS011;7247;53.330;-1.180;2023-08-17T01:43:07;57.30;;;35.30;;
14326;SDS011;7247;53.330;-1.180;2023-08-17T01:45:35;60.57;;;37.27;;
14326;SDS011;7247;53.330;-1.180;2023-08-17T01:48:01;58.97;;;35.73;;
14326;SDS011;7247;53.330;-1.180;2023-08-17T01:50:28;66.47;;;37.53;;
14326;SDS011;7247;53.330;-1.180;2023-08-17T01:52:54;64.63;;;38.63;;
14326;SDS011;7247;53.330;-1.180;2023-08-17T01:55:21;66.40;;;38.30;;
14326;SDS011;7247;53.330;-1.180;2023-08-17T01:57:49;66.93;;;39.40;;
14326;SDS011;7247;53.330;-1.180;2023-08-17T02:00:15;72.53;;;40.27;;
14326;SDS011;7247;53.330;-1.180;2023-08-17T02:02:42;70.97;;;40.90;;
14326;SDS011;7247;53.330;-1.180;2023-08-17T02:05:08;72.50;;;42.07;;
14326;SDS011;7247;53.330;-1.180;2023-08-17T02:07:35;73.60;;;41.07;;
14326;SDS011;7247;53.330;-1.180;2023-08-17T02:10:01;74.73;;;42.70;;
14326;SDS011;7247;53.330;-1.180;2023-08-17T02:12:28;72.60;;;42.57;;
14326;SDS011;7247;53.330;-1.180;2023-08-17T02:14:55;76.27;;;42.93;;
14326;SDS011;7247;53.330;-1.180;2023-08-17T02:17:22;73.47;;;43.90;;
14326;SDS011;7247;53.330;-1.180;2023-08-17T02:19:48;76.13;;;43.30;;
14326;SDS011;7247;53.330;-1.180;2023-08-17T02:22:15;78.77;;;44.37;;
14326;SDS011;7247;53.330;-1.180;2023-08-17T02:24:41;79.50;;;45.93;;
14326;SDS011;7247;53.330;-1.180;2023-08-17T02:27:08;80.43;;;44.43;;
14326;SDS011;7247;53.330;-1.180;2023-08-17T02:29:35;83.40;;;46.13;;
14326;SDS011;7247;53.330;-1.180;2023-08-17T02:32:03;77.70;;;46.00;;
14326;SDS011;7247;53.330;-1.180;2023-08-17T02:34:30;80.10;;;45.90;;
14326;SDS011;7247;53.330;-1.180;2023-08-17T02:36:56;80.40;;;46.87;;
14326;SDS011;7247;53.330;-1.180;2023-08-17T02:39:22;74.83;;;46.43;;
14326;SDS011;7247;53.330;-1.180;2023-08-17T02:41:49;75.97;;;44.97;;
14326;SDS011;7247;53.330;-1.180;2023-08-17T02:44:15;80.40;;;47.13;;
14326;SDS011;7247;53.330;-1.180;2023-08-17T02:46:42;77.37;;;46.17;;
14326;SDS011;7247;53.330;-1.180;2023-08-17T02:49:09;76.00;;;45.17;;
14326;SDS011;7247;53.330;-1.180;2023-08-17T02:51:36;76.93;;;46.40;;
14326;SDS011;7247;53.330;-1.180;2023-08-17T02:54:02;73.30;;;44.43;;
14326;SDS011;7247;53.330;-1.180;2023-08-17T02:56:29;69.10;;;43.93;;
14326;SDS011;7247;53.330;-1.180;2023-08-17T02:58:55;75.43;;;46.43;;
14326;SDS011;7247;53.330;-1.180;2023-08-17T03:01:22;73.40;;;46.53;;
14326;SDS011;7247;53.330;-1.180;2023-08-17T03:03:48;71.50;;;45.53;;
14326;SDS011;7247;53.330;-1.180;2023-08-17T03:06:16;64.33;;;42.33;;
14326;SDS011;7247;53.330;-1.180;2023-08-17T03:08:42;64.60;;;42.83;;
14326;SDS011;7247;53.330;-1.180;2023-08-17T03:11:08;63.97;;;41.37;;
14326;SDS011;7247;53.330;-1.180;2023-08-17T03:13:35;59.07;;;40.73;;
14326;SDS011;7247;53.330;-1.180;2023-08-17T03:16:01;61.80;;;40.97;;
14326;SDS011;7247;53.330;-1.180;2023-08-17T03:18:28;61.40;;;40.67;;
14326;SDS011;7247;53.330;-1.180;2023-08-17T03:20:54;58.87;;;40.07;;
14326;SDS011;7247;53.330;-1.180;2023-08-17T03:23:22;61.07;;;40.43;;
14326;SDS011;7247;53.330;-1.180;2023-08-17T03:25:51;63.47;;;39.60;;
14326;SDS011;7247;53.330;-1.180;2023-08-17T03:28:17;61.23;;;39.20;;
14326;SDS011;7247;53.330;-1.180;2023-08-17T03:30:43;63.10;;;40.13;;
14326;SDS011;7247;53.330;-1.180;2023-08-17T03:33:10;54.80;;;38.20;;
14326;SDS011;7247;53.330;-1.180;2023-08-17T03:35:36;59.33;;;39.67;;
14326;SDS011;7247;53.330;-1.180;2023-08-17T03:38:03;59.53;;;39.90;;
14326;SDS011;7247;53.330;-1.180;2023-08-17T03:40:31;65.10;;;41.30;;
14326;SDS011;7247;53.330;-1.180;2023-08-17T03:42:57;60.87;;;39.30;;
14326;SDS011;7247;53.330;-1.180;2023-08-17T03:45:23;63.53;;;40.83;;
14326;SDS011;7247;53.330;-1.180;2023-08-17T03:47:50;57.03;;;37.67;;
14326;SDS011;7247;53.330;-1.180;2023-08-17T03:50:16;56.53;;;38.40;;
14326;SDS011;7247;53.330;-1.180;2023-08-17T03:52:43;59.10;;;38.70;;
14326;SDS011;7247;53.330;-1.180;2023-08-17T03:55:09;56.47;;;37.03;;
14326;SDS011;7247;53.330;-1.180;2023-08-17T03:57:37;55.43;;;36.83;;
14326;SDS011;7247;53.330;-1.180;2023-08-17T04:00:04;57.87;;;35.87;;
14326;SDS011;7247;53.330;-1.180;2023-08-17T04:02:31;54.50;;;35.73;;
14326;SDS011;7247;53.330;-1.180;2023-08-17T04:04:57;51.50;;;34.80;;
14326;SDS011;7247;53.330;-1.180;2023-08-17T04:07:24;53.47;;;35.57;;
14326;SDS011;7247;53.330;-1.180;2023-08-17T04:09:50;50.97;;;33.47;;
14326;SDS011;7247;53.330;-1.180;2023-08-17T04:12:17;49.77;;;33.90;;
14326;SDS011;7247;53.330;-1.180;2023-08-17T04:14:45;46.43;;;33.80;;
14326;SDS011;7247;53.330;-1.180;2023-08-17T04:17:11;48.57;;;33.57;;
14326;SDS011;7247;53.330;-1.180;2023-08-17T04:19:38;52.33;;;34.53;;
14326;SDS011;7247;53.330;-1.180;2023-08-17T04:22:04;46.40;;;32.77;;
14326;SDS011;7247;53.330;-1.180;2023-08-17T04:24:34;45.27;;;32.97;;
14326;SDS011;7247;53.330;-1.180;2023-08-17T04:27:00;43.20;;;31.07;;
14326;SDS011;7247;53.330;-1.180;2023-08-17T04:29:27;49.97;;;32.07;;
14326;SDS011;7247;53.330;-1.180;2023-08-17T04:31:55;44.63;;;31.47;;
14326;SDS011;7247;53.330;-1.180;2023-08-17T04:34:21;41.23;;;30.97;;
14326;SDS011;7247;53.330;-1.180;2023-08-17T04:36:47;40.90;;;31.37;;
14326;SDS011;7247;53.330;-1.180;2023-08-17T04:39:14;44.17;;;30.90;;
14326;SDS011;7247;53.330;-1.180;2023-08-17T04:41:40;45.30;;;31.03;;
14326;SDS011;7247;53.330;-1.180;2023-08-17T04:44:07;39.03;;;30.03;;
14326;SDS011;7247;53.330;-1.180;2023-08-17T04:46:34;43.20;;;30.47;;
14326;SDS011;7247;53.330;-1.180;2023-08-17T04:49:02;41.87;;;30.57;;
14326;SDS011;7247;53.330;-1.180;2023-08-17T04:51:29;40.43;;;28.67;;
14326;SDS011;7247;53.330;-1.180;2023-08-17T04:53:55;34.63;;;28.30;;
14326;SDS011;7247;53.330;-1.180;2023-08-17T04:56:22;37.67;;;29.03;;
14326;SDS011;7247;53.330;-1.180;2023-08-17T04:58:48;39.03;;;28.83;;
14326;SDS011;7247;53.330;-1.180;2023-08-17T05:01:14;39.77;;;29.03;;
14326;SDS011;7247;53.330;-1.180;2023-08-17T05:03:41;41.40;;;29.07;;
14326;SDS011;7247;53.330;-1.180;2023-08-17T05:06:09;39.30;;;28.97;;
14326;SDS011;7247;53.330;-1.180;2023-08-17T05:08:35;40.77;;;28.83;;
14326;SDS011;7247;53.330;-1.180;2023-08-17T05:11:01;43.03;;;28.47;;
14326;SDS011;7247;53.330;-1.180;2023-08-17T05:13:28;38.57;;;28.50;;
14326;SDS011;7247;53.330;-1.180;2023-08-17T05:15:54;38.77;;;27.67;;
14326;SDS011;7247;53.330;-1.180;2023-08-17T05:18:21;34.57;;;27.90;;
14326;SDS011;7247;53.330;-1.180;2023-08-17T05:20:48;38.20;;;28.70;;
14326;SDS011;7247;53.330;-1.180;2023-08-17T05:23:16;37.53;;;26.87;;
14326;SDS011;7247;53.330;-1.180;2023-08-17T05:25:45;37.47;;;26.00;;
14326;SDS011;7247;53.330;-1.180;2023-08-17T05:28:21;34.87;;;25.00;;
14326;SDS011;7247;53.330;-1.180;2023-08-17T05:30:48;37.07;;;24.87;;
14326;SDS011;7247;53.330;-1.180;2023-08-17T05:33:14;36.60;;;24.97;;
14326;SDS011;7247;53.330;-1.180;2023-08-17T05:35:41;33.00;;;24.27;;
14326;SDS011;7247;53.330;-1.180;2023-08-17T05:38:09;29.27;;;22.97;;
14326;SDS011;7247;53.330;-1.180;2023-08-17T05:40:37;31.70;;;23.53;;
14326;SDS011;7247;53.330;-1.180;2023-08-17T05:43:03;32.77;;;23.50;;
14326;SDS011;7247;53.330;-1.180;2023-08-17T05:45:30;31.40;;;23.17;;
14326;SDS011;7247;53.330;-1.180;2023-08-17T05:47:56;30.27;;;22.33;;
14326;SDS011;7247;53.330;-1.180;2023-08-17T05:50:25;30.97;;;21.87;;
14326;SDS011;7247;53.330;-1.180;2023-08-17T05:52:52;30.60;;;21.73;;
14326;SDS011;7247;53.330;-1.180;2023-08-17T05:55:18;29.20;;;22.43;;
14326;SDS011;7247;53.330;-1.180;2023-08-17T05:57:46;27.57;;;21.37;;
14326;SDS011;7247;53.330;-1.180;2023-08-17T06:00:13;26.43;;;20.80;;
14326;SDS011;7247;53.330;-1.180;2023-08-17T06:02:40;28.03;;;21.20;;
14326;SDS011;7247;53.330;-1.180;2023-08-17T06:05:07;27.53;;;20.67;;
14326;SDS011;7247;53.330;-1.180;2023-08-17T06:07:34;27.13;;;20.73;;
14326;SDS011;7247;53.330;-1.180;2023-08-17T06:10:01;28.93;;;20.20;;
14326;SDS011;7247;53.330;-1.180;2023-08-17T06:12:28;25.37;;;18.43;;
14326;SDS011;7247;53.330;-1.180;2023-08-17T06:14:56;24.43;;;17.73;;
14326;SDS011;7247;53.330;-1.180;2023-08-17T06:17:22;20.10;;;17.13;;
14326;SDS011;7247;53.330;-1.180;2023-08-17T06:19:49;25.33;;;16.10;;
14326;SDS011;7247;53.330;-1.180;2023-08-17T06:22:15;22.67;;;15.97;;
14326;SDS011;7247;53.330;-1.180;2023-08-17T06:24:41;19.40;;;14.23;;
14326;SDS011;7247;53.330;-1.180;2023-08-17T06:27:08;21.27;;;14.30;;
14326;SDS011;7247;53.330;-1.180;2023-08-17T06:29:34;21.07;;;14.50;;
14326;SDS011;7247;53.330;-1.180;2023-08-17T06:32:02;24.57;;;14.27;;
14326;SDS011;7247;53.330;-1.180;2023-08-17T06:34:28;18.07;;;12.83;;
14326;SDS011;7247;53.330;-1.180;2023-08-17T06:36:58;17.30;;;12.97;;
14326;SDS011;7247;53.330;-1.180;2023-08-17T06:39:25;21.47;;;11.83;;
14326;SDS011;7247;53.330;-1.180;2023-08-17T06:41:52;16.13;;;11.00;;
14326;SDS011;7247;53.330;-1.180;2023-08-17T06:44:18;18.07;;;11.33;;
14326;SDS011;7247;53.330;-1.180;2023-08-17T06:46:45;15.97;;;10.27;;
14326;SDS011;7247;53.330;-1.180;2023-08-17T06:49:12;15.23;;;9.13;;
14326;SDS011;7247;53.330;-1.180;2023-08-17T06:51:39;16.03;;;9.03;;
14326;SDS011;7247;53.330;-1.180;2023-08-17T06:54:07;15.33;;;6.80;;
14326;SDS011;7247;53.330;-1.180;2023-08-17T06:56:33;12.27;;;5.80;;
14326;SDS011;7247;53.330;-1.180;2023-08-17T06:59:00;12.73;;;5.50;;
14326;SDS011;7247;53.330;-1.180;2023-08-17T07:01:26;8.50;;;5.20;;
14326;SDS011;7247;53.330;-1.180;2023-08-17T07:03:52;10.20;;;4.80;;
14326;SDS011;7247;53.330;-1.180;2023-08-17T07:06:20;9.10;;;5.20;;
14326;SDS011;7247;53.330;-1.180;2023-08-17T07:08:46;10.13;;;5.30;;
14326;SDS011;7247;53.330;-1.180;2023-08-17T07:11:13;10.13;;;4.80;;
14326;SDS011;7247;53.330;-1.180;2023-08-17T07:13:39;8.37;;;4.63;;
14326;SDS011;7247;53.330;-1.180;2023-08-17T07:16:06;8.93;;;4.87;;
14326;SDS011;7247;53.330;-1.180;2023-08-17T07:18:32;12.03;;;4.77;;
14326;SDS011;7247;53.330;-1.180;2023-08-17T07:20:58;8.63;;;4.20;;
14326;SDS011;7247;53.330;-1.180;2023-08-17T07:23:26;8.73;;;4.10;;
14326;SDS011;7247;53.330;-1.180;2023-08-17T07:25:53;8.50;;;4.30;;
14326;SDS011;7247;53.330;-1.180;2023-08-17T07:28:19;9.20;;;3.87;;
14326;SDS011;7247;53.330;-1.180;2023-08-17T07:30:45;7.10;;;3.60;;
14326;SDS011;7247;53.330;-1.180;2023-08-17T07:33:12;7.53;;;3.60;;
14326;SDS011;7247;53.330;-1.180;2023-08-17T07:35:38;7.00;;;3.10;;
14326;SDS011;7247;53.330;-1.180;2023-08-17T07:38:05;6.87;;;3.47;;
14326;SDS011;7247;53.330;-1.180;2023-08-17T07:40:32;6.97;;;3.20;;
14326;SDS011;7247;53.330;-1.180;2023-08-17T07:42:59;7.07;;;3.33;;
14326;SDS011;7247;53.330;-1.180;2023-08-17T07:45:26;6.17;;;3.40;;
14326;SDS011;7247;53.330;-1.180;2023-08-17T07:47:53;7.80;;;3.30;;
14326;SDS011;7247;53.330;-1.180;2023-08-17T07:50:19;6.57;;;3.27;;
14326;SDS011;7247;53.330;-1.180;2023-08-17T07:52:46;5.63;;;3.10;;
14326;SDS011;7247;53.330;-1.180;2023-08-17T07:55:13;4.93;;;3.00;;
14326;SDS011;7247;53.330;-1.180;2023-08-17T07:57:40;8.90;;;3.33;;
14326;SDS011;7247;53.330;-1.180;2023-08-17T08:00:07;9.00;;;3.00;;
14326;SDS011;7247;53.330;-1.180;2023-08-17T08:02:33;6.97;;;2.93;;
14326;SDS011;7247;53.330;-1.180;2023-08-17T08:05:00;6.73;;;2.93;;
14326;SDS011;7247;53.330;-1.180;2023-08-17T08:07:26;7.20;;;2.93;;
14326;SDS011;7247;53.330;-1.180;2023-08-17T08:09:53;7.03;;;3.30;;
14326;SDS011;7247;53.330;-1.180;2023-08-17T08:12:19;6.40;;;3.37;;
14326;SDS011;7247;53.330;-1.180;2023-08-17T08:14:47;9.40;;;3.53;;
14326;SDS011;7247;53.330;-1.180;2023-08-17T08:17:13;5.27;;;3.30;;
14326;SDS011;7247;53.330;-1.180;2023-08-17T08:19:40;5.97;;;3.57;;
14326;SDS011;7247;53.330;-1.180;2023-08-17T08:22:06;4.97;;;3.33;;
14326;SDS011;7247;53.330;-1.180;2023-08-17T08:24:32;6.63;;;3.27;;
14326;SDS011;7247;53.330;-1.180;2023-08-17T08:26:59;6.83;;;3.00;;
14326;SDS011;7247;53.330;-1.180;2023-08-17T08:29:26;4.50;;;3.10;;
14326;SDS011;7247;53.330;-1.180;2023-08-17T08:31:54;5.63;;;3.47;;
14326;SDS011;7247;53.330;-1.180;2023-08-17T08:34:22;6.23;;;3.20;;
14326;SDS011;7247;53.330;-1.180;2023-08-17T08:36:49;7.80;;;3.37;;
14326;SDS011;7247;53.330;-1.180;2023-08-17T08:39:16;5.93;;;3.30;;
14326;SDS011;7247;53.330;-1.180;2023-08-17T08:41:43;7.23;;;2.97;;
14326;SDS011;7247;53.330;-1.180;2023-08-17T08:44:10;5.97;;;2.70;;
14326;SDS011;7247;53.330;-1.180;2023-08-17T08:46:36;4.47;;;2.80;;
14326;SDS011;7247;53.330;-1.180;2023-08-17T08:49:06;7.67;;;2.90;;
14326;SDS011;7247;53.330;-1.180;2023-08-17T08:51:34;5.53;;;2.60;;
14326;SDS011;7247;53.330;-1.180;2023-08-17T08:54:04;6.37;;;2.60;;
14326;SDS011;7247;53.330;-1.180;2023-08-17T08:56:35;5.70;;;2.70;;
14326;SDS011;7247;53.330;-1.180;2023-08-17T08:59:04;6.00;;;3.00;;
14326;SDS011;7247;53.330;-1.180;2023-08-17T09:01:30;5.70;;;2.60;;
14326;SDS011;7247;53.330;-1.180;2023-08-17T09:03:58;5.33;;;2.70;;
14326;SDS011;7247;53.330;-1.180;2023-08-17T09:06:26;5.23;;;2.50;;
14326;SDS011;7247;53.330;-1.180;2023-08-17T09:08:53;4.60;;;2.10;;
14326;SDS011;7247;53.330;-1.180;2023-08-17T09:11:19;4.07;;;2.30;;
14326;SDS011;7247;53.330;-1.180;2023-08-17T09:13:48;5.90;;;2.50;;
14326;SDS011;7247;53.330;-1.180;2023-08-17T09:16:14;5.97;;;2.20;;
14326;SDS011;7247;53.330;-1.180;2023-08-17T09:18:41;5.17;;;2.27;;
14326;SDS011;7247;53.330;-1.180;2023-08-17T09:21:07;5.40;;;2.30;;
14326;SDS011;7247;53.330;-1.180;2023-08-17T09:23:35;4.83;;;2.20;;
14326;SDS011;7247;53.330;-1.180;2023-08-17T09:26:07;5.93;;;2.20;;
14326;SDS011;7247;53.330;-1.180;2023-08-17T09:28:34;4.90;;;2.50;;
14326;SDS011;7247;53.330;-1.180;2023-08-17T09:31:04;6.13;;;2.43;;
14326;SDS011;7247;53.330;-1.180;2023-08-17T09:33:31;4.03;;;2.13;;
14326;SDS011;7247;53.330;-1.180;2023-08-17T09:35:58;5.60;;;2.50;;
14326;SDS011;7247;53.330;-1.180;2023-08-17T09:38:25;6.17;;;2.30;;
14326;SDS011;7247;53.330;-1.180;2023-08-17T09:40:56;5.73;;;2.43;;
14326;SDS011;7247;53.330;-1.180;2023-08-17T09:43:22;5.43;;;2.33;;
14326;SDS011;7247;53.330;-1.180;2023-08-17T09:45:49;6.20;;;2.30;;
14326;SDS011;7247;53.330;-1.180;2023-08-17T09:48:16;5.33;;;2.20;;
14326;SDS011;7247;53.330;-1.180;2023-08-17T09:50:43;4.77;;;2.37;;
14326;SDS011;7247;53.330;-1.180;2023-08-17T09:53:12;7.63;;;2.73;;
14326;SDS011;7247;53.330;-1.180;2023-08-17T09:55:41;6.20;;;2.40;;
14326;SDS011;7247;53.330;-1.180;2023-08-17T09:58:09;6.27;;;2.50;;
14326;SDS011;7247;53.330;-1.180;2023-08-17T10:00:40;6.07;;;2.23;;
14326;SDS011;7247;53.330;-1.180;2023-08-17T10:03:08;4.60;;;2.00;;
14326;SDS011;7247;53.330;-1.180;2023-08-17T10:05:35;8.40;;;2.43;;
14326;SDS011;7247;53.330;-1.180;2023-08-17T10:08:03;14.77;;;2.93;;
14326;SDS011;7247;53.330;-1.180;2023-08-17T10:10:34;5.43;;;2.27;;
14326;SDS011;7247;53.330;-1.180;2023-08-17T10:13:05;4.07;;;2.10;;
14326;SDS011;7247;53.330;-1.180;2023-08-17T10:15:37;3.37;;;2.00;;
14326;SDS011;7247;53.330;-1.180;2023-08-17T10:18:07;6.67;;;2.30;;
14326;SDS011;7247;53.330;-1.180;2023-08-17T10:20:35;6.20;;;2.20;;
14326;SDS011;7247;53.330;-1.180;2023-08-17T10:23:06;3.80;;;2.00;;
14326;SDS011;7247;53.330;-1.180;2023-08-17T10:25:34;5.40;;;2.10;;
14326;SDS011;7247;53.330;-1.180;2023-08-17T10:28:00;5.10;;;2.00;;
14326;SDS011;7247;53.330;-1.180;2023-08-17T10:30:28;5.00;;;2.07;;
14326;SDS011;7247;53.330;-1.180;2023-08-17T10:32:56;3.07;;;2.00;;
14326;SDS011;7247;53.330;-1.180;2023-08-17T10:35:23;5.80;;;2.00;;
14326;SDS011;7247;53.330;-1.180;2023-08-17T10:37:52;3.63;;;1.90;;
14326;SDS011;7247;53.330;-1.180;2023-08-17T10:40:25;5.67;;;2.00;;
14326;SDS011;7247;53.330;-1.180;2023-08-17T10:42:53;4.33;;;2.10;;
14326;SDS011;7247;53.330;-1.180;2023-08-17T10:45:26;4.60;;;1.60;;
14326;SDS011;7247;53.330;-1.180;2023-08-17T10:48:01;4.57;;;1.97;;
14326;SDS011;7247;53.330;-1.180;2023-08-17T10:50:58;5.00;;;1.83;;
14326;SDS011;7247;53.330;-1.180;2023-08-17T10:53:25;3.10;;;2.00;;
14326;SDS011;7247;53.330;-1.180;2023-08-17T10:55:56;3.73;;;1.60;;
14326;SDS011;7247;53.330;-1.180;2023-08-17T10:58:23;5.40;;;1.73;;
14326;SDS011;7247;53.330;-1.180;2023-08-17T11:00:54;3.67;;;2.00;;
14326;SDS011;7247;53.330;-1.180;2023-08-17T11:03:22;3.27;;;1.70;;
14326;SDS011;7247;53.330;-1.180;2023-08-17T11:05:49;4.33;;;1.67;;
14326;SDS011;7247;53.330;-1.180;2023-08-17T11:08:22;3.30;;;1.70;;
14326;SDS011;7247;53.330;-1.180;2023-08-17T11:10:56;3.77;;;1.60;;
14326;SDS011;7247;53.330;-1.180;2023-08-17T11:13:23;3.80;;;1.70;;
14326;SDS011;7247;53.330;-1.180;2023-08-17T11:15:50;2.83;;;1.40;;
14326;SDS011;7247;53.330;-1.180;2023-08-17T11:18:16;3.93;;;1.57;;
14326;SDS011;7247;53.330;-1.180;2023-08-17T11:20:44;2.90;;;1.83;;
14326;SDS011;7247;53.330;-1.180;2023-08-17T11:23:10;6.63;;;1.80;;
14326;SDS011;7247;53.330;-1.180;2023-08-17T11:25:37;4.90;;;1.77;;
14326;SDS011;7247;53.330;-1.180;2023-08-17T11:28:05;5.53;;;1.90;;
14326;SDS011;7247;53.330;-1.180;2023-08-17T11:30:32;2.70;;;1.47;;
14326;SDS011;7247;53.330;-1.180;2023-08-17T11:32:59;5.40;;;1.70;;
14326;SDS011;7247;53.330;-1.180;2023-08-17T11:35:25;3.87;;;1.83;;
14326;SDS011;7247;53.330;-1.180;2023-08-17T11:37:53;3.67;;;1.60;;
14326;SDS011;7247;53.330;-1.180;2023-08-17T11:40:20;3.67;;;1.70;;
14326;SDS011;7247;53.330;-1.180;2023-08-17T11:42:46;2.53;;;1.30;;
14326;SDS011;7247;53.330;-1.180;2023-08-17T11:45:14;4.13;;;1.70;;
14326;SDS011;7247;53.330;-1.180;2023-08-17T11:47:40;3.50;;;1.63;;
14326;SDS011;7247;53.330;-1.180;2023-08-17T11:50:08;2.30;;;1.40;;
14326;SDS011;7247;53.330;-1.180;2023-08-17T11:52:35;1.42;;;1.20;;
14326;SDS011;7247;53.330;-1.180;2023-08-17T11:55:03;4.95;;;1.50;;
14326;SDS011;7247;53.330;-1.180;2023-08-17T11:57:30;3.25;;;1.40;;
14326;SDS011;7247;53.330;-1.180;2023-08-17T11:59:58;3.47;;;1.63;;
14326;SDS011;7247;53.330;-1.180;2023-08-17T12:02:24;2.55;;;1.30;;
14326;SDS011;7247;53.330;-1.180;2023-08-17T12:04:51;3.38;;;1.40;;
14326;SDS011;7247;53.330;-1.180;2023-08-17T12:07:18;2.17;;;1.30;;
14326;SDS011;7247;53.330;-1.180;2023-08-17T12:09:45;2.35;;;1.63;;
14326;SDS011;7247;53.330;-1.180;2023-08-17T12:12:13;2.40;;;1.40;;
14326;SDS011;7247;53.330;-1.180;2023-08-17T12:14:41;5.57;;;1.40;;
14326;SDS011;7247;53.330;-1.180;2023-08-17T12:17:13;2.05;;;1.17;;
14326;SDS011;7247;53.330;-1.180;2023-08-17T12:19:39;3.47;;;1.55;;
14326;SDS011;7247;53.330;-1.180;2023-08-17T12:22:06;3.22;;;1.40;;
14326;SDS011;7247;53.330;-1.180;2023-08-17T12:24:32;2.67;;;1.40;;
14326;SDS011;7247;53.330;-1.180;2023-08-17T12:27:00;2.30;;;1.25;;
14326;SDS011;7247;53.330;-1.180;2023-08-17T12:29:28;2.58;;;1.30;;
14326;SDS011;7247;53.330;-1.180;2023-08-17T12:31:56;4.90;;;1.70;;
14326;SDS011;7247;53.330;-1.180;2023-08-17T12:34:22;2.38;;;1.40;;
14326;SDS011;7247;53.330;-1.180;2023-08-17T12:36:49;2.22;;;1.30;;
14326;SDS011;7247;53.330;-1.180;2023-08-17T12:39:15;2.78;;;1.20;;
14326;SDS011;7247;53.330;-1.180;2023-08-17T12:41:42;2.22;;;1.30;;
14326;SDS011;7247;53.330;-1.180;2023-08-17T12:44:09;2.22;;;1.20;;
14326;SDS011;7247;53.330;-1.180;2023-08-17T12:46:38;2.67;;;1.20;;
14326;SDS011;7247;53.330;-1.180;2023-08-17T12:49:05;1.75;;;1.15;;
14326;SDS011;7247;53.330;-1.180;2023-08-17T12:51:31;5.20;;;1.20;;
14326;SDS011;7247;53.330;-1.180;2023-08-17T12:53:57;3.60;;;1.42;;
14326;SDS011;7247;53.330;-1.180;2023-08-17T12:56:24;2.83;;;1.35;;
14326;SDS011;7247;53.330;-1.180;2023-08-17T12:58:50;2.58;;;1.40;;
14326;SDS011;7247;53.330;-1.180;2023-08-17T13:01:17;2.00;;;1.52;;
14326;SDS011;7247;53.330;-1.180;2023-08-17T13:03:45;1.45;;;1.10;;
14326;SDS011;7247;53.330;-1.180;2023-08-17T13:06:11;3.47;;;1.30;;
14326;SDS011;7247;53.330;-1.180;2023-08-17T13:08:38;3.60;;;1.27;;
14326;SDS011;7247;53.330;-1.180;2023-08-17T13:11:04;3.90;;;1.40;;
14326;SDS011;7247;53.330;-1.180;2023-08-17T13:13:31;2.40;;;1.50;;
14326;SDS011;7247;53.330;-1.180;2023-08-17T13:15:57;4.30;;;1.52;;
14326;SDS011;7247;53.330;-1.180;2023-08-17T13:18:23;4.15;;;1.60;;
14326;SDS011;7247;53.330;-1.180;2023-08-17T13:20:51;4.28;;;1.92;;
14326;SDS011;7247;53.330;-1.180;2023-08-17T13:23:18;4.18;;;1.60;;
14326;SDS011;7247;53.330;-1.180;2023-08-17T13:25:44;3.97;;;1.48;;
14326;SDS011;7247;53.330;-1.180;2023-08-17T13:28:11;2.67;;;1.48;;
14326;SDS011;7247;53.330;-1.180;2023-08-17T13:30:37;3.95;;;1.30;;
14326;SDS011;7247;53.330;-1.180;2023-08-17T13:33:04;5.60;;;1.17;;
14326;SDS011;7247;53.330;-1.180;2023-08-17T13:35:31;4.30;;;1.05;;
14326;SDS011;7247;53.330;-1.180;2023-08-17T13:37:59;3.03;;;1.10;;
14326;SDS011;7247;53.330;-1.180;2023-08-17T13:40:28;2.15;;;1.10;;
14326;SDS011;7247;53.330;-1.180;2023-08-17T13:42:54;3.67;;;1.20;;
14326;SDS011;7247;53.330;-1.180;2023-08-17T13:45:20;2.30;;;1.23;;
14326;SDS011;7247;53.330;-1.180;2023-08-17T13:47:47;2.17;;;1.20;;
14326;SDS011;7247;53.330;-1.180;2023-08-17T13:50:14;3.92;;;1.20;;
14326;SDS011;7247;53.330;-1.180;2023-08-17T13:52:40;2.10;;;1.20;;
14326;SDS011;7247;53.330;-1.180;2023-08-17T13:55:08;2.00;;;1.20;;
14326;SDS011;7247;53.330;-1.180;2023-08-17T13:57:35;2.78;;;1.23;;
14326;SDS011;7247;53.330;-1.180;2023-08-17T14:00:01;7.32;;;1.40;;
14326;SDS011;7247;53.330;-1.180;2023-08-17T14:02:29;3.67;;;1.20;;
14326;SDS011;7247;53.330;-1.180;2023-08-17T14:04:55;3.15;;;1.13;;
14326;SDS011;7247;53.330;-1.180;2023-08-17T14:07:22;2.08;;;1.30;;
14326;SDS011;7247;53.330;-1.180;2023-08-17T14:09:48;2.78;;;1.30;;
14326;SDS011;7247;53.330;-1.180;2023-08-17T14:12:16;3.20;;;1.10;;
14326;SDS011;7247;53.330;-1.180;2023-08-17T14:14:42;3.20;;;1.20;;
14326;SDS011;7247;53.330;-1.180;2023-08-17T14:17:09;5.40;;;1.50;;
14326;SDS011;7247;53.330;-1.180;2023-08-17T14:19:35;1.55;;;1.00;;
14326;SDS011;7247;53.330;-1.180;2023-08-17T14:22:01;3.70;;;1.25;;
14326;SDS011;7247;53.330;-1.180;2023-08-17T14:24:28;3.25;;;1.02;;
14326;SDS011;7247;53.330;-1.180;2023-08-17T14:26:54;1.30;;;1.00;;
14326;SDS011;7247;53.330;-1.180;2023-08-17T14:29:23;3.42;;;1.20;;
14326;SDS011;7247;53.330;-1.180;2023-08-17T14:31:50;1.40;;;1.10;;
14326;SDS011;7247;53.330;-1.180;2023-08-17T14:34:16;1.88;;;1.20;;
14326;SDS011;7247;53.330;-1.180;2023-08-17T14:36:42;2.80;;;1.30;;